Time;durP1;ratioP1;P1;durP2;ratioP2;P2;SDS_P1;SDS_P2;PMS_P1;PMS_P2;Temp;Humidity;BMP_temperature;BMP_pressure;BME280_temperature;BME280_humidity;BME280_pressure;Samples;Min_cycle;Max_cycle;Signal;HPM_P1;HPM_P2
2022/12/11 00:01:24;;;;;;;80.65;35.22;;;;;;;9.94;92.81;97853.03;3145807;28;20132;-67
2022/12/11 00:02:56;;;;;;;79.80;35.67;;;;;;;9.87;92.61;97827.59;3146071;28;20494;-69
2022/12/11 00:04:28;;;;;;;84.25;35.55;;;;;;;9.89;92.59;97820.50;3145808;28;20049;-68
2022/12/11 00:05:59;;;;;;;88.53;36.92;;;;;;;9.88;93.13;97861.28;3145888;28;20109;-68
2022/12/11 00:07:32;;;;;;;81.50;36.05;;;;;;;9.85;93.16;97838.13;3146156;28;20059;-68
2022/12/11 00:09:04;;;;;;;81.03;35.65;;;;;;;9.85;93.07;97821.66;3145732;28;20048;-67
2022/12/11 00:10:36;;;;;;;78.85;35.80;;;;;;;9.77;92.81;97791.88;3145869;28;20071;-67
2022/12/11 00:12:07;;;;;;;76.10;34.35;;;;;;;9.79;92.97;97778.78;3145519;28;20472;-68
2022/12/11 00:13:39;;;;;;;85.57;36.75;;;;;;;9.75;92.93;97764.34;3145789;28;20070;-67
2022/12/11 00:15:11;;;;;;;85.50;38.80;;;;;;;9.71;92.65;97766.34;3145833;28;20049;-67
2022/12/11 00:16:43;;;;;;;84.00;38.15;;;;;;;9.68;92.75;97765.75;3145650;28;20443;-68
2022/12/11 00:18:15;;;;;;;81.43;36.97;;;;;;;9.71;93.13;97737.75;3145826;28;20049;-68
2022/12/11 00:19:47;;;;;;;83.43;36.05;;;;;;;9.71;92.89;97773.31;3145920;28;20403;-69
2022/12/11 00:21:19;;;;;;;82.60;35.67;;;;;;;9.56;93.30;97731.09;3145994;28;20052;-65
2022/12/11 00:22:52;;;;;;;79.43;36.70;;;;;;;9.66;93.29;97747.66;3145515;28;20064;-68
2022/12/11 00:24:24;;;;;;;76.95;36.90;;;;;;;9.57;93.12;97736.16;3145874;28;20125;-68
2022/12/11 00:25:55;;;;;;;83.63;37.40;;;;;;;9.61;93.26;97718.56;3146065;28;20048;-68
2022/12/11 00:27:27;;;;;;;80.03;36.28;;;;;;;9.56;93.24;97713.72;3145484;28;20579;-68
2022/12/11 00:28:59;;;;;;;85.93;36.63;;;;;;;9.64;93.18;97731.34;3145448;28;20053;-68
2022/12/11 00:30:31;;;;;;;79.10;38.05;;;;;;;9.70;93.29;97745.66;3145931;28;20579;-68
2022/12/11 00:32:03;;;;;;;77.15;35.90;;;;;;;9.69;93.35;97744.00;3145393;28;20040;-67
2022/12/11 00:33:35;;;;;;;82.25;35.60;;;;;;;9.35;93.29;97704.94;3145800;28;20106;-68
2022/12/11 00:35:07;;;;;;;77.93;37.88;;;;;;;9.70;93.40;97769.91;3145657;28;20049;-67
2022/12/11 00:36:39;;;;;;;77.57;36.05;;;;;;;9.70;93.12;97750.84;3145572;28;20052;-68
2022/12/11 00:38:16;;;;;;;84.47;36.28;;;;;;;9.72;93.43;97738.56;3145873;28;20098;-68
2022/12/11 00:39:48;;;;;;;80.03;33.95;;;;;;;9.72;93.63;97755.00;3140647;28;20056;-67
2022/12/11 00:41:20;;;;;;;83.43;35.55;;;;;;;9.73;93.28;97774.00;3145272;28;20044;-67
2022/12/11 00:42:52;;;;;;;78.95;35.25;;;;;;;9.74;93.56;97762.69;3145825;28;20056;-68
2022/12/11 00:44:24;;;;;;;76.30;35.13;;;;;;;9.76;93.57;97771.19;3145622;28;20136;-69
2022/12/11 00:45:55;;;;;;;81.47;35.83;;;;;;;9.76;93.67;97764.25;3145299;28;20095;-68
2022/12/11 00:47:26;;;;;;;73.90;34.53;;;;;;;9.78;93.48;97769.31;3145662;28;20113;-68
2022/12/11 00:48:58;;;;;;;80.70;34.50;;;;;;;9.75;93.61;97759.13;3145129;28;20064;-68
2022/12/11 00:50:30;;;;;;;76.40;34.38;;;;;;;9.80;93.81;97747.47;3145631;28;20071;-68
2022/12/11 00:52:02;;;;;;;75.13;34.28;;;;;;;9.82;93.56;97768.16;3145479;28;20105;-68
2022/12/11 00:53:36;;;;;;;76.10;33.42;;;;;;;9.83;93.96;97790.59;3144563;28;20174;-68
2022/12/11 00:55:07;;;;;;;;;;;;;;;9.75;93.93;97772.97;3145976;28;20085;-69
2022/12/11 00:56:39;;;;;;;73.63;32.22;;;;;;;9.76;93.84;97751.25;3145187;28;19935;-68
2022/12/11 00:58:11;;;;;;;76.18;32.33;;;;;;;9.80;94.28;97731.88;3145563;28;20090;-68
2022/12/11 00:59:43;;;;;;;67.38;30.90;;;;;;;9.82;93.86;97741.31;3144929;28;20147;-68
2022/12/11 01:01:17;;;;;;;76.75;31.05;;;;;;;9.85;94.24;97734.13;3145235;28;20432;-68
2022/12/11 01:02:49;;;;;;;61.53;30.08;;;;;;;9.89;94.35;97737.31;3135643;28;20053;-69
2022/12/11 01:04:22;;;;;;;73.63;30.10;;;;;;;9.91;94.43;97725.00;3145213;28;20048;-68
2022/12/11 01:05:55;;;;;;;69.65;30.88;;;;;;;9.89;94.53;97698.31;3145346;28;20059;-68
2022/12/11 01:07:26;;;;;;;65.65;29.63;;;;;;;9.92;94.27;97700.69;3132825;28;20053;-68
2022/12/11 01:10:49;;;;;;;73.95;31.08;;;;;;;9.88;94.59;97670.66;3145325;28;20041;-68
2022/12/11 01:12:20;;;;;;;66.50;29.75;;;;;;;9.85;94.63;97657.88;3143622;28;20048;-68
2022/12/11 01:13:51;;;;;;;75.07;30.45;;;;;;;9.93;94.54;97671.97;3145201;28;20052;-68
2022/12/11 01:15:26;;;;;;;69.38;31.40;;;;;;;9.80;94.80;97664.28;3145168;28;20106;-68
2022/12/11 01:16:58;;;;;;;65.20;28.83;;;;;;;9.99;94.94;97700.09;3145055;28;20052;-68
2022/12/11 01:18:29;;;;;;;72.88;29.90;;;;;;;9.99;94.69;97701.88;3145364;28;20052;-68
2022/12/11 01:20:02;;;;;;;69.13;29.70;;;;;;;9.96;94.73;97695.13;3136827;28;20654;-68
2022/12/11 01:21:34;;;;;;;;;;;;;;;10.01;94.83;97713.00;3136847;28;20076;-68
2022/12/11 01:23:06;;;;;;;60.80;28.00;;;;;;;10.04;94.78;97712.75;3135560;28;20080;-68
2022/12/11 01:24:39;;;;;;;65.80;28.95;;;;;;;10.08;95.01;97708.97;3135224;28;20060;-68
2022/12/11 01:26:14;;;;;;;66.50;30.25;;;;;;;9.98;95.01;97682.03;3123673;28;20506;-68
2022/12/11 01:27:47;;;;;;;67.40;29.05;;;;;;;9.79;94.69;97652.22;3135707;28;20582;-68
2022/12/11 01:29:18;;;;;;;71.07;30.08;;;;;;;9.97;94.81;97659.56;3135727;28;20411;-68
2022/12/11 01:30:50;;;;;;;63.30;28.23;;;;;;;10.13;94.66;97680.84;3135248;28;20145;-69
2022/12/11 01:32:22;;;;;;;72.22;30.38;;;;;;;9.73;94.47;97621.50;3135952;28;20502;-68
2022/12/11 01:33:54;;;;;;;62.83;28.98;;;;;;;10.14;94.58;97692.06;3135430;28;20110;-68
2022/12/11 01:35:26;;;;;;;66.15;29.83;;;;;;;10.11;94.36;97692.31;3135148;28;20475;-69
2022/12/11 01:36:59;;;;;;;66.25;29.50;;;;;;;10.12;94.28;97686.16;3135934;28;20048;-68
2022/12/11 01:38:31;;;;;;;67.00;30.17;;;;;;;10.12;93.99;97691.38;3135755;28;20063;-68
2022/12/11 01:40:06;;;;;;;58.72;27.67;;;;;;;10.12;94.19;97684.41;3134851;28;20149;-68
2022/12/11 01:41:38;;;;;;;67.32;29.15;;;;;;;10.11;94.01;97664.50;3136091;28;20722;-68
2022/12/11 01:43:11;;;;;;;66.40;29.17;;;;;;;10.05;93.92;97667.59;3123945;28;20473;-68
2022/12/11 01:45:26;;;;;;;69.20;29.67;;;;;;;10.07;93.85;97673.50;3135709;28;20250;-68
2022/12/11 01:46:58;;;;;;;62.65;27.35;;;;;;;9.77;94.03;97607.31;3135385;28;20048;-69
2022/12/11 01:48:32;;;;;;;69.68;28.65;;;;;;;10.01;94.24;97609.78;3136041;28;20048;-68
2022/12/11 01:50:05;;;;;;;63.08;28.50;;;;;;;10.03;94.14;97600.13;3134535;28;20149;-68
2022/12/11 01:51:42;;;;;;;70.75;29.63;;;;;;;10.02;94.13;97572.44;3135436;28;20055;-68
2022/12/11 01:53:19;;;;;;;62.38;28.30;;;;;;;9.81;93.66;97516.94;3134855;28;20063;-68
2022/12/11 01:54:50;;;;;;;62.22;27.35;;;;;;;9.93;93.79;97556.75;3135222;28;20261;-68
2022/12/11 01:56:24;;;;;;;65.70;30.35;;;;;;;9.92;93.78;97552.50;3135545;28;20044;-68
2022/12/11 01:57:55;;;;;;;67.32;28.50;;;;;;;9.91;93.79;97549.06;3135158;28;20151;-69
2022/12/11 01:59:30;;;;;;;60.92;28.23;;;;;;;9.93;94.01;97580.13;3131113;28;20051;-68
2022/12/11 02:01:02;;;;;;;62.10;28.27;;;;;;;9.91;94.04;97543.03;3134985;28;20497;-68
2022/12/11 02:02:34;;;;;;;64.43;28.17;;;;;;;9.70;94.08;97530.78;3135087;28;20050;-68
2022/12/11 02:04:07;;;;;;;58.83;29.25;;;;;;;9.88;93.87;97551.06;3135845;28;20054;-68
2022/12/11 02:05:39;;;;;;;60.55;27.42;;;;;;;9.87;93.72;97562.41;3135405;28;20139;-68
2022/12/11 02:07:11;;;;;;;57.42;27.65;;;;;;;9.23;94.01;97513.63;3134891;28;20597;-68
2022/12/11 02:08:43;;;;;;;57.20;27.95;;;;;;;9.79;94.36;97574.25;3134979;28;20144;-67
2022/12/11 02:10:14;;;;;;;66.20;28.80;;;;;;;9.83;94.38;97561.03;3135182;28;20105;-67
2022/12/11 02:12:00;;;;;;;70.57;28.05;;;;;;;9.85;94.19;97557.34;3134587;28;20087;-67
2022/12/11 02:13:39;;;;;;;60.53;26.98;;;;;;;9.87;94.52;97558.03;3135282;28;20095;-68
2022/12/11 02:15:16;;;;;;;64.13;27.20;;;;;;;9.85;94.33;97580.75;3134849;28;20052;-68
2022/12/11 02:16:55;;;;;;;60.15;27.13;;;;;;;9.91;94.76;97566.41;3135796;28;20443;-67
2022/12/11 02:18:34;;;;;;;60.80;27.65;;;;;;;9.39;94.80;97484.72;3135605;28;20490;-68
2022/12/11 02:20:13;;;;;;;63.85;28.05;;;;;;;9.77;94.73;97538.94;3135133;28;20055;-68
2022/12/11 02:21:53;;;;;;;56.17;27.23;;;;;;;9.94;94.66;97580.03;3135802;28;20078;-68
2022/12/11 02:23:57;;;;;;;67.07;28.80;;;;;;;9.88;94.78;97559.72;3135264;28;20136;-68
2022/12/11 02:25:36;;;;;;;58.22;27.92;;;;;;;9.53;94.55;97523.47;3135304;28;20086;-68
2022/12/11 02:27:23;;;;;;;64.25;27.42;;;;;;;9.96;94.70;97574.69;3134959;28;20537;-67
2022/12/11 02:28:59;;;;;;;62.67;25.70;;;;;;;9.95;94.52;97552.25;3134153;28;20056;-68
2022/12/11 02:30:32;;;;;;;61.50;26.38;;;;;;;9.97;94.43;97585.00;3134543;28;20044;-68
2022/12/11 02:32:09;;;;;;;59.30;26.75;;;;;;;10.00;94.64;97569.16;3134773;28;20132;-68
2022/12/11 02:33:45;;;;;;;56.47;25.52;;;;;;;10.01;94.78;97551.78;3135525;28;20060;-68
2022/12/11 02:35:22;;;;;;;60.08;25.52;;;;;;;9.70;94.74;97506.53;3136036;28;20414;-68
2022/12/11 02:36:58;;;;;;;58.95;26.42;;;;;;;10.06;94.63;97585.19;3135449;28;20050;-68
2022/12/11 02:38:33;;;;;;;73.75;27.58;;;;;;;9.94;94.31;97555.81;3135923;28;20425;-68
2022/12/11 02:40:11;;;;;;;62.25;25.60;;;;;;;10.00;94.58;97550.94;3135682;28;20048;-68
2022/12/11 02:41:46;;;;;;;56.05;26.35;;;;;;;10.08;94.73;97568.53;3135370;28;20048;-68
2022/12/11 02:43:20;;;;;;;53.22;24.63;;;;;;;9.95;94.79;97536.66;3135932;28;20083;-68
2022/12/11 02:44:55;;;;;;;70.05;24.65;;;;;;;10.14;94.61;97552.44;3135233;28;20282;-67
2022/12/11 02:46:28;;;;;;;59.15;25.50;;;;;;;10.16;94.75;97545.34;3134697;28;20045;-68
2022/12/11 02:48:04;;;;;;;62.58;24.27;;;;;;;10.16;95.00;97542.75;3134267;28;20105;-67
2022/12/11 02:49:35;;;;;;;59.80;25.17;;;;;;;10.18;94.80;97537.44;3133849;28;20052;-67
2022/12/11 02:51:09;;;;;;;56.55;25.00;;;;;;;10.04;95.00;97507.31;3134159;28;20044;-68
2022/12/11 02:52:42;;;;;;;56.53;25.73;;;;;;;10.15;95.06;97525.50;3133693;28;20106;-67
2022/12/11 02:54:23;;;;;;;56.70;24.55;;;;;;;10.19;94.98;97528.69;3134149;28;20102;-67
2022/12/11 02:56:01;;;;;;;52.13;23.13;;;;;;;10.19;95.13;97526.09;3134538;28;20441;-67
2022/12/11 02:57:39;;;;;;;53.40;23.35;;;;;;;10.23;95.09;97524.88;3135224;28;20071;-68
2022/12/11 02:59:16;;;;;;;54.97;24.73;;;;;;;10.23;95.12;97530.06;3135316;28;20147;-68
2022/12/11 03:00:50;;;;;;;55.45;23.50;;;;;;;10.29;95.05;97552.22;3134487;28;20079;-68
2022/12/11 03:02:22;;;;;;;67.57;24.65;;;;;;;10.29;95.05;97549.59;3134921;28;20056;-67
2022/12/11 03:03:54;;;;;;;58.60;24.70;;;;;;;10.29;94.94;97534.00;3134566;28;20056;-67
2022/12/11 03:05:27;;;;;;;55.58;23.25;;;;;;;10.30;95.11;97528.69;3134532;28;20521;-67
2022/12/11 03:07:10;;;;;;;58.95;24.30;;;;;;;10.32;95.39;97550.19;3133766;28;20056;-67
2022/12/11 03:08:42;;;;;;;57.60;23.35;;;;;;;10.30;95.17;97557.31;3134114;28;20133;-67
2022/12/11 03:10:17;;;;;;;53.17;24.33;;;;;;;10.32;95.35;97555.38;3134680;28;20052;-66
2022/12/11 03:11:49;;;;;;;55.15;24.50;;;;;;;10.33;95.29;97549.25;3134452;28;20055;-69
2022/12/11 03:13:22;;;;;;;52.22;22.50;;;;;;;10.32;94.99;97533.75;3135707;28;20070;-66
2022/12/11 03:14:54;;;;;;;;;;;;;;;10.27;94.92;97530.72;3135427;28;20049;-68
2022/12/11 03:16:35;;;;;;;50.33;22.08;;;;;;;10.27;95.07;97535.91;3133579;28;19986;-68
2022/12/11 03:18:15;;;;;;;59.40;23.98;;;;;;;10.28;95.05;97554.00;3134354;28;20060;-68
2022/12/11 03:19:55;;;;;;;56.42;22.65;;;;;;;10.29;94.71;97549.59;3134685;28;20643;-68
2022/12/11 03:21:32;;;;;;;52.05;21.92;;;;;;;10.29;94.72;97547.81;3135598;28;20504;-69
2022/12/11 03:23:14;;;;;;;48.25;21.38;;;;;;;10.30;95.06;97556.47;3123734;28;20175;-68
2022/12/11 03:24:50;;;;;;;53.92;22.70;;;;;;;10.23;94.83;97554.34;3135255;28;20083;-68
2022/12/11 03:26:25;;;;;;;58.22;23.10;;;;;;;10.32;94.98;97573.59;3137611;28;20056;-68
2022/12/11 03:28:00;;;;;;;45.67;20.80;;;;;;;10.34;94.90;97576.09;3143392;28;20052;-68
2022/12/11 03:29:38;;;;;;;47.72;20.70;;;;;;;10.36;95.06;97582.00;3144105;28;20052;-68
2022/12/11 03:31:16;;;;;;;48.33;22.85;;;;;;;10.33;94.71;97572.66;3143430;28;20052;-68
2022/12/11 03:32:53;;;;;;;47.58;22.08;;;;;;;10.40;94.67;97584.22;3143809;28;20052;-68
2022/12/11 03:34:30;;;;;;;53.47;20.63;;;;;;;10.42;94.70;97591.91;3144077;28;20053;-68
2022/12/11 03:36:06;;;;;;;60.88;24.02;;;;;;;10.41;94.95;97585.91;3144024;28;20045;-68
2022/12/11 03:37:40;;;;;;;49.70;22.15;;;;;;;10.20;94.85;97546.78;3144009;28;20562;-70
2022/12/11 03:39:17;;;;;;;51.65;21.23;;;;;;;10.41;94.80;97572.88;3143359;28;21406;-70
2022/12/11 03:40:53;;;;;;;49.70;21.25;;;;;;;10.33;95.00;97546.66;3144199;28;20098;-69
2022/12/11 03:42:26;;;;;;;60.25;20.63;;;;;;;10.44;94.83;97571.78;3144281;28;20410;-70
2022/12/11 03:44:00;;;;;;;48.67;22.60;;;;;;;10.30;94.90;97567.72;3143731;28;20059;-67
2022/12/11 03:45:34;;;;;;;51.00;21.20;;;;;;;10.44;94.94;97597.81;3143394;28;20079;-68
2022/12/11 03:47:08;;;;;;;55.70;21.27;;;;;;;10.44;94.59;97595.22;3131439;28;20045;-68
2022/12/11 03:48:45;;;;;;;49.03;21.23;;;;;;;10.46;94.57;97585.50;3143376;28;20146;-68
2022/12/11 03:50:19;;;;;;;49.20;21.35;;;;;;;10.40;94.75;97576.41;3144210;28;20048;-68
2022/12/11 03:51:53;;;;;;;52.25;20.60;;;;;;;9.85;94.67;97484.56;3143670;28;20044;-67
2022/12/11 03:53:26;;;;;;;55.80;21.02;;;;;;;10.41;94.86;97554.69;3143567;28;20430;-67
2022/12/11 03:55:03;;;;;;;58.25;22.55;;;;;;;10.17;94.36;97515.78;3143800;28;20054;-67
2022/12/11 03:56:37;;;;;;;48.03;21.30;;;;;;;10.46;94.57;97575.94;3143631;28;20066;-69
2022/12/11 03:58:09;;;;;;;45.50;21.73;;;;;;;10.46;94.82;97565.53;3144167;28;20110;-69
2022/12/11 03:59:42;;;;;;;49.88;22.50;;;;;;;10.46;94.70;97560.31;3143693;28;20098;-69
2022/12/11 04:01:13;;;;;;;51.40;21.60;;;;;;;10.15;94.44;97522.91;3143159;28;20052;-69
2022/12/11 04:03:11;;;;;;;56.08;24.17;;;;;;;10.02;94.70;97507.44;3142600;28;20069;-69
2022/12/11 04:04:41;;;;;;;46.35;22.88;;;;;;;10.35;94.56;97560.38;3138460;28;20062;-69
2022/12/11 04:06:13;;;;;;;47.70;22.27;;;;;;;10.41;94.57;97566.84;3144027;28;20159;-68
2022/12/11 04:07:44;;;;;;;43.30;19.60;;;;;;;10.46;94.46;97569.91;3143630;28;20049;-69
2022/12/11 04:09:16;;;;;;;45.90;19.63;;;;;;;10.43;94.74;97572.75;3143645;28;20205;-69
2022/12/11 04:11:33;;;;;;;42.60;19.13;;;;;;;10.40;94.30;97560.81;3143787;28;20045;-65
2022/12/11 04:12:40;;;;;;;41.22;16.90;;;;;;;10.42;94.46;97578.91;3143275;28;20059;-64
2022/12/11 04:16:04;;;;;;;42.22;17.17;;;;;;;10.47;94.40;97574.19;3131101;28;20131;-64
2022/12/11 04:24:54;;;;;;;47.22;18.67;;;;;;;10.49;94.46;97567.06;3143578;28;20076;-65
2022/12/11 04:26:26;;;;;;;44.15;21.92;;;;;;;10.51;94.45;97577.34;3143689;28;20044;-65
2022/12/11 04:27:57;;;;;;;41.55;19.33;;;;;;;10.51;94.60;97572.97;3144085;28;20224;-65
2022/12/11 04:29:29;;;;;;;44.28;19.65;;;;;;;10.52;94.47;97560.78;3145605;28;20134;-63
2022/12/11 04:31:01;;;;;;;46.08;17.35;;;;;;;10.52;93.94;97558.19;3145182;28;20579;-63
2022/12/11 04:32:32;;;;;;;34.42;16.23;;;;;;;10.50;94.07;97566.13;3145646;28;20052;-62
2022/12/11 04:34:04;;;;;;;37.80;16.30;;;;;;;10.51;94.13;97567.75;3145912;28;20567;-62
2022/12/11 04:35:36;;;;;;;43.92;19.52;;;;;;;10.54;93.79;97571.91;3145624;28;20133;-62
2022/12/11 04:37:08;;;;;;;49.20;18.27;;;;;;;10.56;93.74;97575.19;3146029;28;20048;-64
2022/12/11 04:38:40;;;;;;;33.90;15.48;;;;;;;10.21;93.76;97517.22;3145520;28;20106;-62
2022/12/11 04:40:15;;;;;;;40.53;15.80;;;;;;;10.57;93.56;97587.25;3145986;28;20410;-63
2022/12/11 04:41:47;;;;;;;37.58;18.75;;;;;;;10.56;93.74;97578.63;3145358;28;20049;-63
2022/12/11 04:43:18;;;;;;;39.90;18.13;;;;;;;10.58;93.48;97571.50;3146091;28;20052;-62
2022/12/11 04:44:50;;;;;;;44.78;18.50;;;;;;;10.58;93.71;97571.50;3145363;28;20048;-63
2022/12/11 04:46:24;;;;;;;52.10;22.92;;;;;;;10.54;93.78;97567.50;3145937;28;20056;-62
2022/12/11 04:47:56;;;;;;;43.45;18.42;;;;;;;10.55;93.74;97571.75;3145287;28;20116;-64
2022/12/11 04:49:27;;;;;;;41.95;16.98;;;;;;;10.59;93.43;97577.53;3145465;28;20437;-63
2022/12/11 04:50:58;;;;;;;45.40;19.35;;;;;;;10.59;93.33;97595.75;3145918;28;20052;-65
2022/12/11 04:52:32;;;;;;;45.80;18.83;;;;;;;10.61;93.21;97596.47;3145692;28;20052;-63
2022/12/11 04:54:03;;;;;;;;;;;;;;;10.51;93.18;97591.19;3146038;28;20063;-63
2022/12/11 04:55:35;;;;;;;36.85;16.90;;;;;;;10.51;93.26;97591.19;3145804;28;19927;-65
2022/12/11 04:57:07;;;;;;;41.17;18.80;;;;;;;10.53;93.49;97598.84;3145192;28;20085;-62
2022/12/11 04:58:41;;;;;;;44.05;18.05;;;;;;;10.48;93.33;97591.44;3145209;28;20526;-63
2022/12/11 05:00:14;;;;;;;39.13;17.83;;;;;;;10.53;93.28;97606.66;3145217;28;20088;-63
2022/12/11 05:01:46;;;;;;;43.80;18.02;;;;;;;10.52;93.47;97599.81;3145372;28;20040;-64
2022/12/11 05:03:18;;;;;;;39.90;16.60;;;;;;;10.54;93.40;97605.72;3145362;28;20048;-63
2022/12/11 05:04:50;;;;;;;42.58;17.20;;;;;;;10.53;93.47;97599.72;3137853;28;20052;-63
2022/12/11 05:06:22;;;;;;;36.33;16.05;;;;;;;10.50;93.01;97594.75;3145811;28;20041;-63
2022/12/11 05:07:54;;;;;;;43.72;17.35;;;;;;;10.56;93.01;97614.22;3144857;28;20490;-63
2022/12/11 05:09:26;;;;;;;34.20;16.75;;;;;;;10.55;93.27;97616.00;3145567;28;20052;-63
2022/12/11 05:10:59;;;;;;;33.85;17.38;;;;;;;10.54;92.85;97609.16;3144974;28;20060;-63
2022/12/11 05:12:32;;;;;;;40.97;16.73;;;;;;;10.53;93.25;97604.91;3145348;28;20504;-63
2022/12/11 05:14:04;;;;;;;39.85;18.20;;;;;;;10.49;93.22;97603.47;3145702;28;20208;-63
2022/12/11 05:15:39;;;;;;;43.80;17.00;;;;;;;10.51;93.06;97612.00;3145444;28;20614;-63
2022/12/11 05:17:11;;;;;;;38.05;17.02;;;;;;;10.51;92.68;97619.00;3145025;28;20128;-63
2022/12/11 05:18:43;;;;;;;37.63;17.05;;;;;;;9.83;92.58;97504.66;3145336;28;20440;-64
2022/12/11 05:20:15;;;;;;;42.17;17.95;;;;;;;10.46;92.66;97608.94;3145243;28;20090;-63
2022/12/11 05:21:46;;;;;;;45.03;20.83;;;;;;;10.48;92.65;97622.66;3145237;28;20048;-63
2022/12/11 05:23:19;;;;;;;45.90;20.92;;;;;;;10.47;92.76;97610.59;3145188;28;20575;-63
2022/12/11 05:24:50;;;;;;;99.10;46.05;;;;;;;10.45;92.90;97623.72;3133375;28;20485;-63
2022/12/11 05:26:22;;;;;;;54.40;26.25;;;;;;;10.41;92.87;97617.13;3139562;28;20514;-63
2022/12/11 05:27:54;;;;;;;47.92;21.08;;;;;;;10.40;92.63;97609.41;3145296;28;20127;-63
2022/12/11 05:29:26;;;;;;;37.05;17.73;;;;;;;10.44;92.42;97616.88;3145015;28;20457;-64
2022/12/11 05:30:58;;;;;;;37.63;18.27;;;;;;;10.45;92.36;97610.72;3144898;28;20052;-63
2022/12/11 05:32:30;;;;;;;40.67;17.70;;;;;;;10.46;92.57;97624.53;3145704;28;20052;-63
2022/12/11 05:34:02;;;;;;;46.65;20.23;;;;;;;9.73;92.41;97514.09;3144996;28;20590;-64
2022/12/11 05:35:34;;;;;;;42.83;18.35;;;;;;;10.44;92.46;97640.28;3145020;28;20052;-62
2022/12/11 05:37:05;;;;;;;42.10;18.70;;;;;;;10.43;92.24;97641.22;3145315;28;20071;-63
2022/12/11 05:38:38;;;;;;;41.55;17.63;;;;;;;10.44;92.34;97655.06;3144566;28;20484;-63
2022/12/11 05:40:11;;;;;;;42.37;16.80;;;;;;;10.38;92.50;97647.72;3144645;28;20062;-63
2022/12/11 05:41:43;;;;;;;39.10;18.23;;;;;;;10.40;92.56;97653.66;3144490;28;20147;-63
2022/12/11 05:43:14;;;;;;;41.35;18.27;;;;;;;10.40;92.25;97651.88;3145171;28;20140;-63
2022/12/11 05:44:46;;;;;;;47.17;17.50;;;;;;;10.40;92.32;97651.88;3144683;28;20044;-63
2022/12/11 05:46:18;;;;;;;41.22;20.58;;;;;;;10.40;92.06;97643.25;3145130;28;20048;-63
2022/12/11 05:47:50;;;;;;;39.42;17.92;;;;;;;10.35;91.79;97637.56;3144791;28;20127;-63
2022/12/11 05:49:22;;;;;;;54.20;27.85;;;;;;;10.38;92.08;97639.94;3135937;28;20122;-63
2022/12/11 05:50:57;;;;;;;43.63;21.60;;;;;;;10.38;92.03;97645.97;3142572;28;20048;-63
2022/12/11 05:52:28;;;;;;;36.50;17.90;;;;;;;10.37;91.96;97643.50;3132296;28;20049;-63
2022/12/11 05:54:03;;;;;;;38.00;18.42;;;;;;;10.39;91.90;97649.41;3132107;28;20087;-64
2022/12/11 05:55:36;;;;;;;34.45;17.48;;;;;;;10.34;92.01;97644.56;3142764;28;20076;-64
2022/12/11 05:57:08;;;;;;;40.33;19.42;;;;;;;10.37;91.77;97661.69;3143441;28;20040;-65
2022/12/11 05:58:40;;;;;;;46.60;18.13;;;;;;;10.35;91.53;97667.03;3142859;28;20514;-65
2022/12/11 06:00:13;;;;;;;44.40;18.75;;;;;;;10.34;91.47;97685.34;3140989;28;20060;-63
2022/12/11 06:01:44;;;;;;;40.33;18.38;;;;;;;10.31;91.81;97678.63;3142159;28;20053;-63
2022/12/11 06:03:15;;;;;;;45.55;18.95;;;;;;;10.31;91.86;97672.59;3143454;28;20048;-63
2022/12/11 06:04:47;;;;;;;42.05;18.92;;;;;;;10.33;91.95;97694.13;3143534;28;20464;-63
2022/12/11 06:06:19;;;;;;;37.78;18.77;;;;;;;10.33;91.99;97687.13;3143760;28;20052;-63
2022/12/11 06:07:51;;;;;;;38.15;18.35;;;;;;;10.33;92.01;97692.34;3143165;28;20056;-63
2022/12/11 06:09:24;;;;;;;43.28;18.73;;;;;;;10.35;92.08;97702.59;3143379;28;20048;-64
2022/12/11 06:10:56;;;;;;;45.45;18.90;;;;;;;10.32;91.97;97711.47;3142927;28;20048;-64
2022/12/11 06:12:28;;;;;;;40.70;18.83;;;;;;;10.36;92.30;97712.09;3143502;28;20052;-63
2022/12/11 06:14:02;;;;;;;45.28;20.42;;;;;;;10.37;92.39;97718.94;3143841;28;20056;-64
2022/12/11 06:15:32;;;;;;;44.95;20.73;;;;;;;10.34;91.97;97721.78;3143426;28;20135;-64
2022/12/11 06:17:04;;;;;;;51.00;23.38;;;;;;;10.36;92.40;97722.50;3142694;28;20052;-63
2022/12/11 06:18:37;;;;;;;84.82;42.72;;;;;;;10.37;92.47;97724.97;3143449;28;20052;-61
2022/12/11 06:20:09;;;;;;;158.60;79.10;;;;;;;10.37;92.46;97730.16;3144427;28;20059;-62
2022/12/11 06:21:41;;;;;;;203.70;105.55;;;;;;;10.38;92.38;97720.59;3143031;28;20079;-63
2022/12/11 06:23:13;;;;;;;134.27;67.75;;;;;;;10.36;92.32;97722.50;3142611;28;20143;-61
2022/12/11 06:24:46;;;;;;;146.20;69.38;;;;;;;9.53;92.31;97583.22;3141669;28;20052;-64
2022/12/11 06:26:20;;;;;;;107.68;48.60;;;;;;;10.42;92.71;97722.03;3143073;28;20048;-63
2022/12/11 06:27:52;;;;;;;146.52;75.85;;;;;;;10.44;92.89;97725.31;3141625;28;20441;-63
2022/12/11 06:29:23;;;;;;;54.75;28.02;;;;;;;10.41;92.64;97726.41;3143435;28;20052;-67
2022/12/11 06:30:58;;;;;;;57.42;24.40;;;;;;;10.01;92.63;97653.19;3143973;28;20049;-66
2022/12/11 06:32:30;;;;;;;49.35;22.92;;;;;;;10.50;92.89;97734.41;3143439;28;20068;-66
2022/12/11 06:34:01;;;;;;;45.80;20.85;;;;;;;10.50;92.27;97732.66;3142678;28;20157;-69
2022/12/11 06:35:33;;;;;;;40.53;19.08;;;;;;;10.50;92.40;97726.59;3144112;28;20076;-66
2022/12/11 06:37:05;;;;;;;35.70;16.88;;;;;;;10.53;92.12;97736.78;3143978;28;20052;-67
2022/12/11 06:38:38;;;;;;;56.37;24.20;;;;;;;10.54;92.28;97728.88;3142842;28;20102;-65
2022/12/11 06:40:12;;;;;;;44.97;18.55;;;;;;;10.54;92.01;97726.25;3143158;28;20314;-65
2022/12/11 06:41:44;;;;;;;38.40;18.52;;;;;;;10.51;91.97;97710.88;3144239;28;20061;-66
2022/12/11 06:43:16;;;;;;;43.67;19.60;;;;;;;10.54;92.15;97715.84;3143429;28;20426;-68
2022/12/11 06:44:48;;;;;;;41.30;19.48;;;;;;;10.60;91.94;97717.16;3142958;28;20067;-65
2022/12/11 06:46:20;;;;;;;36.97;17.38;;;;;;;10.62;91.82;97726.50;3143852;28;20132;-66
2022/12/11 06:47:52;;;;;;;43.85;18.73;;;;;;;10.58;92.18;97714.66;3143831;28;20048;-69
2022/12/11 06:49:24;;;;;;;344.33;152.05;;;;;;;10.56;92.11;97703.56;3143019;28;20053;-67
2022/12/11 06:50:56;;;;;;;199.40;97.35;;;;;;;10.52;92.12;97699.53;3143580;28;20603;-69
2022/12/11 06:52:28;;;;;;;94.63;47.42;;;;;;;10.69;92.21;97719.84;3144098;28;20056;-69
2022/12/11 06:54:00;;;;;;;45.35;21.65;;;;;;;10.73;92.31;97715.22;3144055;28;20059;-66
2022/12/11 06:55:35;;;;;;;52.53;26.15;;;;;;;10.80;92.23;97726.00;3144726;28;20548;-67
2022/12/11 06:57:09;;;;;;;40.30;19.65;;;;;;;10.76;92.35;97711.56;3144081;28;20059;-63
2022/12/11 06:58:42;;;;;;;37.35;17.77;;;;;;;10.84;92.61;97736.03;3143905;28;20059;-64
2022/12/11 07:00:15;;;;;;;36.08;19.13;;;;;;;10.89;92.26;97733.09;3144134;28;20438;-64
2022/12/11 07:01:47;;;;;;;37.97;21.52;;;;;;;10.55;92.37;97675.84;3144090;28;20049;-66
2022/12/11 07:03:19;;;;;;;35.33;18.42;;;;;;;10.93;92.09;97731.88;3144086;28;20044;-62
2022/12/11 07:04:50;;;;;;;40.67;17.98;;;;;;;10.96;92.09;97739.44;3144418;28;20072;-64
2022/12/11 07:06:23;;;;;;;39.40;17.80;;;;;;;10.98;91.98;97737.56;3144774;28;20529;-65
2022/12/11 07:07:55;;;;;;;38.78;16.90;;;;;;;11.01;91.92;97739.91;3140873;28;20158;-64
2022/12/11 07:09:27;;;;;;;39.10;18.40;;;;;;;11.05;91.63;97745.69;3143861;28;20102;-65
2022/12/11 07:11:05;;;;;;;41.50;19.15;;;;;;;11.16;91.63;97756.91;3143840;28;20090;-63
2022/12/11 07:12:38;;;;;;;43.45;18.95;;;;;;;11.24;91.45;97758.06;3144068;28;20097;-63
2022/12/11 07:14:11;;;;;;;39.15;18.08;;;;;;;11.26;91.15;97756.19;3144073;28;20494;-62
2022/12/11 07:15:43;;;;;;;41.40;19.75;;;;;;;11.24;91.08;97751.09;3143305;28;20480;-65
2022/12/11 07:17:15;;;;;;;38.83;17.92;;;;;;;11.32;91.41;97750.47;3131332;28;20148;-66
2022/12/11 07:18:49;;;;;;;41.33;20.20;;;;;;;11.39;91.04;97755.06;3131412;28;20048;-65
2022/12/11 07:20:21;;;;;;;39.78;20.35;;;;;;;11.43;91.17;97749.59;3139032;28;20098;-66
2022/12/11 07:21:53;;;;;;;82.65;45.20;;;;;;;11.48;91.37;97750.06;3143659;28;20052;-66
2022/12/11 07:23:25;;;;;;;93.15;47.30;;;;;;;11.45;91.03;97737.28;3143724;28;20052;-67